This is the latest recevied weather packets stored in our database for station/object W4SMH. If no packets are shown the sender has not sent any weather packets the latest 10 day(s).
| Time | Temp. | Humidity | Pressure | Rain* | Wind** | Luminosity | Snow |
|---|---|---|---|---|---|---|---|
| 1777550253 | 1.67° C | 92% | 1014.9 hPa | 0 mm | - | 69 W/m² | - |
| 1777550124 | 1.67° C | 92% | 1015 hPa | 0 mm | - | 60 W/m² | - |
| 1777549569 | 1.67° C | 92% | 1015 hPa | 0 mm | - | 37 W/m² | - |
| 1777549545 | 1.67° C | 92% | 1015 hPa | 0 mm | - | 32 W/m² | - |
| 1777548367 | 11.11° C | 77% | 1009.9 hPa | 0 mm | - | 214 W/m² | - |
| 1777548355 | 11.11° C | 76% | 1009.6 hPa | 0 mm | - | 229 W/m² | - |
| 1777548351 | 11.11° C | 77% | 1009.5 hPa | 0 mm | - | 192 W/m² | - |
| 1777548242 | 1.11° C | 92% | 1015.1 hPa | 0 mm | - | 30 W/m² | - |
| 1777548031 | 1.11° C | 92% | 1014.9 hPa | 0 mm | - | 28 W/m² | - |
| 1777547903 | 1.11° C | 92% | 1014.9 hPa | 0 mm | - | 25 W/m² | - |
| 1777547708 | 1.11° C | 92% | 1014.9 hPa | 0 mm | - | 23 W/m² | - |
| 1777547614 | 1.11° C | 92% | 1014.9 hPa | 0 mm | - | 16 W/m² | - |
| 1777547584 | 1.67° C | 92% | 1015 hPa | 0 mm | - | 16 W/m² | - |
| 1777547161 | 1.67° C | 92% | 1014.9 hPa | 0 mm | - | 11 W/m² | - |
| 1777547104 | 1.67° C | 92% | 1014.9 hPa | 0 mm | - | 11 W/m² | - |
| 1777546836 | 10.56° C | 78% | 1008 hPa | 0 mm | - | 155 W/m² | - |
| 1777546710 | 1.67° C | 91% | 1014.9 hPa | 0 mm | - | 7 W/m² | - |
| 1777546668 | 1.67° C | 91% | 1015 hPa | 0 mm | - | 7 W/m² | - |
| 1777546609 | 1.67° C | 91% | 1015 hPa | 0 mm | - | 5 W/m² | - |
| 1777545906 | 1.67° C | 91% | 1014.9 hPa | 0 mm | - | 0 W/m² | - |
| 1777545726 | 1.67° C | 92% | 1014.9 hPa | 0 mm | - | 0 W/m² | - |
| 1777545329 | 10.56° C | 81% | 1006.2 hPa | 0 mm | - | 23 W/m² | - |
| 1777545297 | 1.67° C | 92% | 1015 hPa | 0 mm | - | 0 W/m² | - |
| 1777544711 | 1.67° C | 92% | 1014.9 hPa | 0 mm | - | 0 W/m² | - |
| 1777542888 | 1.67° C | 91% | 1014.8 hPa | 0 mm | - | 0 W/m² | - |
* Rain latest hour (hover to see other rain measurements)
** Current wind speed in m/s (hover to see current wind gust speed)